Time;durP1;ratioP1;P1;durP2;ratioP2;P2;SDS_P1;SDS_P2;PMS_P1;PMS_P2;Temp;Humidity;BMP_temperature;BMP_pressure;BME280_temperature;BME280_humidity;BME280_pressure;Samples;Min_cycle;Max_cycle;Signal;HPM_P1;HPM_P2
2022/02/16 00:01:12;;;;;;;3.00;0.90;;;;;;;4.87;94.16;99722.63;107794;1280;59124;-80
2022/02/16 00:03:39;;;;;;;3.00;1.20;;;;;;;4.88;94.44;99724.00;107967;1279;75921;-80
2022/02/16 00:06:06;;;;;;;2.40;0.90;;;;;;;4.87;94.52;99724.41;107603;1280;59712;-80
2022/02/16 00:08:32;;;;;;;3.50;1.40;;;;;;;4.88;94.54;99728.63;107918;1279;72012;-79
2022/02/16 00:10:59;;;;;;;2.00;1.10;;;;;;;4.90;94.55;99729.04;107843;1281;61156;-80
2022/02/16 00:13:25;;;;;;;2.20;1.30;;;;;;;4.90;94.72;99729.65;107860;1278;59107;-79
2022/02/16 00:15:52;;;;;;;2.70;1.40;;;;;;;4.90;94.77;99720.26;107950;1279;75052;-79
2022/02/16 00:18:19;;;;;;;3.40;1.00;;;;;;;4.91;94.92;99724.14;107948;1279;72471;-79
2022/02/16 00:20:45;;;;;;;3.20;0.90;;;;;;;4.92;94.81;99722.16;107500;1280;73157;-80
2022/02/16 00:23:12;;;;;;;2.30;1.20;;;;;;;4.93;95.17;99712.42;107968;1279;59087;-79
2022/02/16 00:25:38;;;;;;;5.10;1.60;;;;;;;4.93;95.26;99713.33;107979;1279;60755;-80
2022/02/16 00:28:05;;;;;;;2.60;1.10;;;;;;;4.93;95.21;99714.52;107610;1281;59478;-81
2022/02/16 00:30:31;;;;;;;3.30;2.10;;;;;;;4.95;95.05;99712.08;107915;1279;72987;-79
2022/02/16 00:32:58;;;;;;;4.10;1.50;;;;;;;4.96;94.71;99704.73;107516;1279;73433;-79
2022/02/16 00:35:25;;;;;;;4.60;1.40;;;;;;;4.98;94.63;99698.72;107907;1279;59081;-79
2022/02/16 00:37:51;;;;;;;4.00;1.40;;;;;;;5.00;94.61;99698.89;107772;1279;61313;-78
2022/02/16 00:40:18;;;;;;;3.20;1.30;;;;;;;5.02;94.39;99698.47;107856;1279;59747;-78
2022/02/16 00:42:45;;;;;;;3.50;1.20;;;;;;;5.04;94.40;99690.45;107878;1280;70380;-78
2022/02/16 00:45:11;;;;;;;4.80;1.40;;;;;;;5.06;94.55;99692.13;107839;1279;73384;-78
2022/02/16 00:47:38;;;;;;;5.20;1.20;;;;;;;5.07;94.57;99690.61;107862;1279;59733;-78
2022/02/16 00:50:05;;;;;;;3.10;1.00;;;;;;;5.08;94.81;99686.51;107892;1279;59362;-78
2022/02/16 00:52:32;;;;;;;4.20;1.10;;;;;;;5.07;94.94;99686.71;107862;1279;75745;-79
2022/02/16 00:54:59;;;;;;;5.80;1.10;;;;;;;5.08;95.00;99680.13;107863;1279;70325;-79
2022/02/16 00:57:26;;;;;;;2.50;1.00;;;;;;;5.09;94.96;99679.34;107977;1279;72847;-80
2022/02/16 00:59:53;;;;;;;3.40;1.20;;;;;;;5.10;95.05;99678.30;107470;1280;61472;-80
2022/02/16 01:02:19;;;;;;;6.80;1.60;;;;;;;5.11;95.07;99678.72;107978;1279;59905;-79
2022/02/16 01:04:46;;;;;;;1.90;1.00;;;;;;;5.12;95.01;99670.77;107952;1279;59146;-78
2022/02/16 01:07:12;;;;;;;3.40;1.10;;;;;;;5.13;94.92;99670.17;107965;1279;59678;-79
2022/02/16 01:09:39;;;;;;;1.70;0.80;;;;;;;5.15;94.80;99671.23;107931;1279;59230;-79
2022/02/16 01:12:06;;;;;;;2.80;1.00;;;;;;;5.17;94.66;99660.77;107948;1279;59167;-79
2022/02/16 01:14:33;;;;;;;3.10;0.90;;;;;;;5.20;94.25;99658.47;107884;1279;60330;-80
2022/02/16 01:16:59;;;;;;;1.70;0.80;;;;;;;5.24;94.09;99653.54;107677;1279;76105;-80
2022/02/16 01:19:26;;;;;;;2.60;0.80;;;;;;;5.26;93.96;99650.96;107955;1279;71361;-80
2022/02/16 01:21:52;;;;;;;1.60;0.80;;;;;;;5.29;93.99;99650.19;107949;1279;59179;-81
2022/02/16 01:24:19;;;;;;;7.20;0.90;;;;;;;5.32;93.46;99639.89;107869;1279;61003;-79
2022/02/16 01:26:46;;;;;;;4.60;0.70;;;;;;;5.35;93.69;99648.92;108021;1279;59479;-78
2022/02/16 01:29:12;;;;;;;1.30;0.70;;;;;;;5.36;93.51;99638.38;107986;1279;73925;-79
2022/02/16 01:31:39;;;;;;;2.10;0.80;;;;;;;5.38;93.37;99637.80;107997;1278;59274;-80
2022/02/16 01:34:05;;;;;;;3.10;1.00;;;;;;;5.41;93.25;99635.36;107845;1279;59358;-80
2022/02/16 01:36:32;;;;;;;1.80;0.70;;;;;;;5.44;93.02;99627.35;107881;1279;59615;-81
2022/02/16 01:39:00;;;;;;;2.40;1.00;;;;;;;5.47;92.88;99621.38;107992;1279;60349;-80
2022/02/16 01:41:27;;;;;;;2.00;0.90;;;;;;;5.49;92.90;99617.29;107958;1279;59818;-80
2022/02/16 01:43:54;;;;;;;1.60;0.80;;;;;;;5.51;92.80;99605.52;107924;1279;60190;-80
2022/02/16 01:46:21;;;;;;;3.70;0.90;;;;;;;5.52;92.65;99609.83;107846;1279;72964;-78
2022/02/16 01:48:47;;;;;;;2.50;0.90;;;;;;;5.55;92.34;99607.94;107964;1265;60804;-80
2022/02/16 01:51:14;;;;;;;1.30;1.00;;;;;;;5.57;92.24;99598.04;108137;1277;60577;-79
2022/02/16 01:53:40;;;;;;;1.80;0.70;;;;;;;5.59;92.11;99595.90;108103;1277;74994;-79
2022/02/16 01:56:07;;;;;;;1.70;0.90;;;;;;;5.61;91.88;99595.49;108147;1277;71356;-79
2022/02/16 01:58:34;;;;;;;1.30;0.90;;;;;;;5.63;91.69;99585.29;107994;1278;75410;-80
2022/02/16 02:01:02;;;;;;;2.10;0.70;;;;;;;5.64;91.65;99579.34;108088;1277;62507;-79
2022/02/16 02:03:30;;;;;;;2.80;1.00;;;;;;;5.66;91.49;99578.23;108102;1277;61662;-81
2022/02/16 02:05:56;;;;;;;2.10;0.80;;;;;;;5.67;91.54;99573.11;107893;1279;74754;-80
2022/02/16 02:08:24;;;;;;;1.70;0.90;;;;;;;5.68;91.62;99574.36;107893;1267;72469;-79
2022/02/16 02:10:51;;;;;;;1.50;0.60;;;;;;;5.69;91.49;99566.80;107903;1265;73841;-79
2022/02/16 02:15:43;;;;;;;0.70;0.50;;;;;;;5.73;91.26;99563.77;108117;1266;60629;-80
2022/02/16 02:18:17;;;;;;;3.40;1.00;;;;;;;5.75;91.06;99553.99;108243;1276;59909;-81
2022/02/16 02:20:44;;;;;;;1.80;0.50;;;;;;;5.77;90.86;99549.88;108108;1277;71312;-81
2022/02/16 02:23:11;;;;;;;1.20;0.60;;;;;;;5.79;90.74;99549.45;108229;1276;72936;-81
2022/02/16 02:25:48;;;;;;;2.30;0.60;;;;;;;5.81;90.63;99538.17;108212;1276;62211;-81
2022/02/16 02:28:16;;;;;;;0.60;0.40;;;;;;;5.82;90.53;99531.54;108024;1276;61253;-79
2022/02/16 02:30:43;;;;;;;1.30;0.70;;;;;;;5.83;90.42;99523.56;108184;1276;74929;-79
2022/02/16 02:33:09;;;;;;;1.10;0.50;;;;;;;5.84;90.53;99519.60;108242;1276;59095;-80
2022/02/16 02:35:36;;;;;;;1.30;0.60;;;;;;;5.85;90.51;99518.66;108212;1276;59049;-80
2022/02/16 02:38:05;;;;;;;1.60;0.80;;;;;;;5.85;90.38;99514.70;108278;1276;61140;-79
2022/02/16 02:40:32;;;;;;;1.50;0.60;;;;;;;5.86;90.25;99510.22;108224;1276;61829;-79
2022/02/16 02:42:58;;;;;;;1.20;0.60;;;;;;;5.88;90.52;99505.46;108260;1276;75946;-81
2022/02/16 02:45:25;;;;;;;1.10;0.60;;;;;;;5.89;90.31;99506.30;108115;1276;59313;-79
2022/02/16 02:47:52;;;;;;;3.20;1.00;;;;;;;5.89;90.26;99502.25;108021;1276;74220;-80
2022/02/16 02:50:18;;;;;;;2.90;0.90;;;;;;;5.89;90.22;99499.51;108177;1276;61253;-80
2022/02/16 02:52:45;;;;;;;2.10;0.50;;;;;;;5.90;90.20;99497.48;108202;1276;61703;-79
2022/02/16 02:55:13;;;;;;;4.70;0.80;;;;;;;5.91;90.14;99497.73;108175;1276;58513;-80
2022/02/16 02:57:40;;;;;;;1.20;0.70;;;;;;;5.92;90.17;99494.99;107997;1276;70365;-79
2022/02/16 03:00:09;;;;;;;1.90;0.70;;;;;;;5.93;90.14;99491.20;108061;1277;59400;-80
2022/02/16 03:02:37;;;;;;;6.30;0.80;;;;;;;5.94;90.24;99490.97;108020;1276;63258;-79
2022/02/16 03:05:04;;;;;;;1.50;1.00;;;;;;;5.93;90.31;99493.27;108163;1274;61895;-81
2022/02/16 03:07:31;;;;;;;1.40;0.80;;;;;;;5.95;90.38;99490.72;108022;1276;75118;-79
2022/02/16 03:09:57;;;;;;;0.70;0.40;;;;;;;5.95;90.67;99484.20;108161;1276;59310;-79
2022/02/16 03:12:25;;;;;;;0.80;0.60;;;;;;;5.93;91.07;99475.73;108236;1276;72082;-79
2022/02/16 03:14:52;;;;;;;1.30;0.70;;;;;;;5.91;91.35;99468.77;107918;1276;61414;-79
2022/02/16 03:17:19;;;;;;;1.60;0.80;;;;;;;5.88;91.67;99469.61;108259;1276;59084;-78
2022/02/16 03:19:46;;;;;;;2.90;0.70;;;;;;;5.87;91.98;99469.49;108015;1276;59199;-79
2022/02/16 03:22:12;;;;;;;1.30;0.80;;;;;;;5.83;92.30;99464.52;108149;1276;71588;-78
2022/02/16 03:24:39;;;;;;;1.90;0.70;;;;;;;5.81;92.30;99462.06;108210;1276;59272;-79
2022/02/16 03:27:05;;;;;;;1.10;0.70;;;;;;;5.80;92.46;99457.65;107922;1276;61237;-79
2022/02/16 03:29:32;;;;;;;2.30;0.90;;;;;;;5.78;92.65;99458.33;108210;1276;58464;-79
2022/02/16 03:31:58;;;;;;;3.10;0.80;;;;;;;5.77;92.61;99456.89;108236;1276;59594;-80
2022/02/16 03:34:25;;;;;;;1.70;0.90;;;;;;;5.77;92.65;99449.39;108166;1276;60048;-79
2022/02/16 03:36:51;;;;;;;0.80;0.60;;;;;;;5.77;92.75;99444.23;108195;1276;59118;-79
2022/02/16 03:39:18;;;;;;;1.90;1.00;;;;;;;5.77;92.37;99448.33;107990;1274;59109;-79
2022/02/16 03:41:44;;;;;;;2.20;1.10;;;;;;;5.77;92.46;99442.39;108215;1276;59163;-81
2022/02/16 03:44:11;;;;;;;1.40;0.80;;;;;;;5.78;92.45;99444.84;107687;1277;59458;-78
2022/02/16 03:46:37;;;;;;;1.50;0.80;;;;;;;5.79;92.02;99440.60;107866;1276;71094;-78
2022/02/16 03:49:05;;;;;;;1.30;0.70;;;;;;;5.81;91.93;99434.02;108155;1276;59119;-79
2022/02/16 03:51:33;;;;;;;1.80;1.10;;;;;;;5.81;91.87;99432.29;107762;1277;61483;-79
2022/02/16 03:54:00;;;;;;;1.70;0.90;;;;;;;5.82;91.80;99430.55;108194;1276;61671;-80
2022/02/16 03:56:26;;;;;;;1.20;0.70;;;;;;;5.83;91.57;99424.81;107897;1276;76123;-80
2022/02/16 03:58:53;;;;;;;1.60;0.70;;;;;;;5.86;91.08;99429.02;107929;1277;71389;-79
2022/02/16 04:01:19;;;;;;;1.70;0.90;;;;;;;5.90;90.89;99419.14;108190;1276;60000;-80
2022/02/16 04:03:45;;;;;;;1.00;0.60;;;;;;;5.91;90.63;99421.35;108135;1276;58642;-79
2022/02/16 04:06:12;;;;;;;1.50;0.80;;;;;;;5.95;90.39;99415.17;108221;1276;59002;-78
2022/02/16 04:08:38;;;;;;;1.60;1.00;;;;;;;5.98;90.50;99419.10;108195;1276;60051;-78
2022/02/16 04:11:05;;;;;;;2.30;0.70;;;;;;;5.98;90.88;99413.44;108193;1276;59178;-78
2022/02/16 04:13:32;;;;;;;1.40;0.90;;;;;;;5.98;90.83;99408.34;108201;1276;72991;-78
2022/02/16 04:15:58;;;;;;;2.60;0.70;;;;;;;5.98;91.01;99405.91;108141;1276;61766;-79
2022/02/16 04:18:25;;;;;;;2.30;1.10;;;;;;;5.97;91.07;99401.48;108214;1276;59789;-79
2022/02/16 04:20:51;;;;;;;1.50;0.80;;;;;;;5.97;91.17;99409.05;108149;1275;59419;-79
2022/02/16 04:23:20;;;;;;;1.70;0.90;;;;;;;5.96;91.22;99401.91;108216;1276;71442;-79
2022/02/16 04:25:47;;;;;;;4.50;0.90;;;;;;;5.97;91.14;99391.12;108183;1276;59157;-80
2022/02/16 04:28:13;;;;;;;1.40;0.80;;;;;;;5.97;91.33;99387.41;108193;1276;59037;-78
2022/02/16 04:30:40;;;;;;;1.50;0.80;;;;;;;5.98;91.42;99386.47;108186;1276;61387;-79
2022/02/16 04:33:08;;;;;;;1.10;0.70;;;;;;;5.98;91.43;99384.69;108017;1276;74417;-80
2022/02/16 04:35:35;;;;;;;0.80;0.50;;;;;;;5.99;91.34;99376.80;108221;1276;71947;-79
2022/02/16 04:38:01;;;;;;;1.60;0.80;;;;;;;5.99;91.56;99378.55;108186;1276;59190;-80
2022/02/16 04:40:29;;;;;;;1.40;0.80;;;;;;;6.00;91.68;99373.45;108204;1267;59163;-78
2022/02/16 04:42:55;;;;;;;1.10;0.60;;;;;;;6.00;91.84;99369.01;108050;1264;60920;-80
2022/02/16 04:45:22;;;;;;;2.50;0.70;;;;;;;6.00;92.06;99363.06;108035;1267;59207;-78
2022/02/16 04:47:49;;;;;;;2.10;0.80;;;;;;;5.98;92.36;99350.85;108131;1267;73806;-80
2022/02/16 04:50:15;;;;;;;1.30;0.80;;;;;;;5.98;92.36;99358.37;108026;1278;73902;-80
2022/02/16 04:52:42;;;;;;;2.40;0.90;;;;;;;5.97;92.82;99347.98;108098;1277;59470;-80
2022/02/16 04:55:10;;;;;;;2.10;1.20;;;;;;;5.96;92.91;99348.05;108127;1276;59991;-80
2022/02/16 04:57:38;;;;;;;1.10;0.70;;;;;;;5.95;93.14;99342.36;107950;1276;75194;-81
2022/02/16 05:00:06;;;;;;;1.90;1.00;;;;;;;5.94;93.12;99339.48;108056;1277;71201;-80
2022/02/16 05:02:33;;;;;;;1.80;0.70;;;;;;;5.91;93.55;99330.48;108151;1276;74112;-79
2022/02/16 05:05:00;;;;;;;1.80;0.80;;;;;;;5.90;93.80;99326.26;108134;1276;59570;-80
2022/02/16 05:07:26;;;;;;;1.90;0.80;;;;;;;5.88;93.97;99327.68;108003;1277;60029;-81
2022/02/16 05:09:53;;;;;;;2.00;1.00;;;;;;;5.88;94.21;99324.69;108062;1278;75876;-79
2022/02/16 05:12:19;;;;;;;1.40;0.80;;;;;;;5.88;94.41;99320.19;108174;1276;59230;-80
2022/02/16 05:14:45;;;;;;;1.30;0.70;;;;;;;5.86;94.32;99314.41;108150;1276;59167;-80
2022/02/16 05:17:12;;;;;;;1.40;0.80;;;;;;;5.85;94.60;99309.78;108174;1276;59221;-81
2022/02/16 05:19:38;;;;;;;2.30;0.90;;;;;;;5.84;94.90;99301.58;108118;1278;59150;-79
2022/02/16 05:22:05;;;;;;;1.00;0.60;;;;;;;5.83;95.06;99299.91;108030;1264;59140;-79
2022/02/16 05:24:32;;;;;;;2.00;0.80;;;;;;;5.82;95.17;99293.02;108080;1277;72161;-80
2022/02/16 05:26:58;;;;;;;1.50;0.50;;;;;;;5.81;95.46;99292.06;108001;1278;72505;-80
2022/02/16 05:29:25;;;;;;;2.20;0.50;;;;;;;5.80;95.72;99283.79;108098;1279;59349;-79
2022/02/16 05:31:51;;;;;;;0.90;0.60;;;;;;;5.79;95.65;99282.52;108055;1279;59559;-80
2022/02/16 05:34:18;;;;;;;2.40;0.90;;;;;;;5.78;95.88;99270.67;108044;1278;75021;-81
2022/02/16 05:36:45;;;;;;;2.70;0.90;;;;;;;5.78;96.01;99269.07;108088;1278;71331;-80
2022/02/16 05:39:11;;;;;;;4.50;2.30;;;;;;;5.78;96.01;99264.36;108102;1279;72996;-79
2022/02/16 05:41:38;;;;;;;1.90;1.10;;;;;;;5.77;96.09;99259.73;108054;1278;59098;-79
2022/02/16 05:44:05;;;;;;;1.60;1.00;;;;;;;5.78;95.91;99258.28;108021;1279;59745;-80
2022/02/16 05:46:31;;;;;;;1.80;0.60;;;;;;;5.79;96.02;99252.33;108115;1278;74681;-79
2022/02/16 05:48:57;;;;;;;1.60;0.70;;;;;;;5.80;95.65;99246.17;108006;1279;59611;-79
2022/02/16 05:51:24;;;;;;;1.30;0.70;;;;;;;5.82;95.61;99240.38;108046;1279;59154;-80
2022/02/16 05:53:50;;;;;;;0.90;0.50;;;;;;;5.83;95.32;99230.77;107935;1279;59230;-79
2022/02/16 05:56:17;;;;;;;0.80;0.30;;;;;;;5.86;95.07;99222.99;108111;1278;61261;-78
2022/02/16 05:58:43;;;;;;;2.00;0.80;;;;;;;5.89;94.81;99216.59;108093;1278;59142;-80
2022/02/16 06:01:10;;;;;;;0.70;0.40;;;;;;;5.91;94.59;99206.86;108022;1277;59526;-78
2022/02/16 06:03:38;;;;;;;1.30;0.60;;;;;;;5.94;94.43;99200.20;107915;1278;58544;-78
2022/02/16 06:06:05;;;;;;;2.40;0.70;;;;;;;5.96;94.39;99195.92;108010;1278;62350;-78
2022/02/16 06:08:31;;;;;;;1.10;0.50;;;;;;;5.98;94.37;99193.46;107969;1279;59297;-78
2022/02/16 06:11:00;;;;;;;1.00;0.70;;;;;;;5.99;94.18;99193.47;107996;1279;60712;-78
2022/02/16 06:13:26;;;;;;;0.40;0.40;;;;;;;6.01;94.41;99190.45;107997;1279;72944;-80
2022/02/16 06:15:53;;;;;;;1.10;0.60;;;;;;;6.02;94.02;99181.85;108022;1279;59284;-81
2022/02/16 06:18:19;;;;;;;0.90;0.60;;;;;;;6.04;94.03;99189.23;108032;1278;59123;-78
2022/02/16 06:20:46;;;;;;;1.30;0.50;;;;;;;6.06;93.99;99189.64;108002;1278;59308;-78
2022/02/16 06:23:13;;;;;;;1.00;0.60;;;;;;;6.08;93.83;99178.50;107865;1277;59216;-79
2022/02/16 06:25:39;;;;;;;1.20;0.40;;;;;;;6.10;93.77;99171.11;108008;1278;71406;-80
2022/02/16 06:28:06;;;;;;;1.30;0.60;;;;;;;6.11;93.76;99159.54;108039;1278;72716;-80
2022/02/16 06:30:33;;;;;;;1.30;0.40;;;;;;;6.12;93.78;99163.25;107899;1279;62388;-80
2022/02/16 06:33:00;;;;;;;1.30;0.60;;;;;;;6.14;94.10;99167.66;108044;1278;59052;-80
2022/02/16 06:35:27;;;;;;;2.20;0.60;;;;;;;6.15;93.93;99162.66;107977;1279;75094;-80
2022/02/16 06:37:53;;;;;;;1.90;0.70;;;;;;;6.16;94.02;99157.60;108002;1278;71446;-80
2022/02/16 06:40:20;;;;;;;1.30;0.70;;;;;;;6.17;93.69;99144.63;107979;1278;60017;-79
2022/02/16 06:42:46;;;;;;;0.90;0.60;;;;;;;6.18;93.90;99143.70;107976;1279;61138;-78
2022/02/16 06:45:13;;;;;;;0.70;0.50;;;;;;;6.19;93.93;99141.45;108035;1279;60361;-79
2022/02/16 06:47:39;;;;;;;0.70;0.40;;;;;;;6.22;93.98;99137.55;108039;1279;75006;-79
2022/02/16 06:50:07;;;;;;;1.20;0.90;;;;;;;6.25;93.76;99131.61;107997;1279;71607;-78
2022/02/16 06:52:34;;;;;;;1.20;0.50;;;;;;;6.27;93.77;99127.70;108021;1278;72995;-77
2022/02/16 06:55:00;;;;;;;2.40;0.60;;;;;;;6.28;93.67;99132.95;107886;1279;60169;-78
2022/02/16 06:57:27;;;;;;;1.00;0.70;;;;;;;6.30;93.80;99130.10;107883;1279;60538;-78
2022/02/16 06:59:53;;;;;;;0.60;0.40;;;;;;;6.31;93.78;99129.46;108049;1277;59423;-80
2022/02/16 07:02:20;;;;;;;1.20;0.60;;;;;;;6.31;93.66;99127.68;108009;1279;59174;-78
2022/02/16 07:04:46;;;;;;;2.70;0.70;;;;;;;6.32;93.55;99123.64;107995;1278;59955;-78
2022/02/16 07:07:13;;;;;;;1.80;0.80;;;;;;;6.32;93.36;99120.81;107991;1279;59284;-78
2022/02/16 07:09:39;;;;;;;1.50;0.70;;;;;;;6.33;93.33;99108.76;107985;1278;60164;-78
2022/02/16 07:12:06;;;;;;;1.40;0.60;;;;;;;6.36;93.15;99103.38;108021;1279;59231;-77
2022/02/16 07:14:33;;;;;;;1.40;0.50;;;;;;;6.38;93.24;99089.08;108018;1279;71386;-79
2022/02/16 07:16:59;;;;;;;1.00;0.50;;;;;;;6.40;93.02;99077.58;107905;1278;59345;-79
2022/02/16 07:19:26;;;;;;;1.20;0.50;;;;;;;6.43;92.80;99083.44;108000;1279;62581;-77
2022/02/16 07:21:53;;;;;;;2.50;0.60;;;;;;;6.45;92.45;99074.36;108030;1279;60281;-77
2022/02/16 07:26:22;;;;;;;1.40;0.50;;;;;;;6.54;92.19;99072.89;101924;1311;600318;-80
2022/02/16 07:28:48;;;;;;;1.30;0.70;;;;;;;6.54;91.90;99064.63;104413;1286;60087;-77
2022/02/16 07:31:15;;;;;;;1.50;0.70;;;;;;;6.58;91.80;99064.77;104219;1286;59346;-80
2022/02/16 07:33:42;;;;;;;0.60;0.40;;;;;;;6.60;91.73;99060.08;104832;1284;60070;-80
2022/02/16 07:36:08;;;;;;;3.30;0.90;;;;;;;6.62;91.24;99058.20;104777;1286;59164;-80
2022/02/16 07:38:35;;;;;;;2.10;0.60;;;;;;;6.65;91.26;99050.81;104688;1286;59276;-77
2022/02/16 07:41:02;;;;;;;1.10;0.60;;;;;;;6.66;91.35;99050.08;104398;1283;168719;-78
2022/02/16 07:43:28;;;;;;;2.20;0.80;;;;;;;6.66;91.48;99039.46;104492;1283;59327;-77
2022/02/16 07:45:55;;;;;;;1.50;0.70;;;;;;;6.65;92.11;99037.12;104441;1282;72482;-79
2022/02/16 07:48:22;;;;;;;0.90;0.50;;;;;;;6.62;92.94;99036.11;105187;1274;71151;-80
2022/02/16 07:50:48;;;;;;;1.80;0.50;;;;;;;6.57;93.99;99033.88;104997;1281;73000;-78
2022/02/16 07:53:16;;;;;;;0.70;0.70;;;;;;;6.51;94.78;99021.77;105264;1281;62268;-82
2022/02/16 07:55:43;;;;;;;1.40;0.70;;;;;;;6.45;95.33;99014.25;105033;1281;60526;-79
2022/02/16 07:58:09;;;;;;;1.50;0.70;;;;;;;6.40;96.07;99006.14;105155;1281;74934;-80
2022/02/16 08:00:37;;;;;;;0.80;0.50;;;;;;;6.34;96.66;98996.98;105246;1281;59643;-80
2022/02/16 08:03:05;;;;;;;2.60;0.70;;;;;;;6.29;97.54;98989.43;105219;1283;73161;-80
2022/02/16 08:05:34;;;;;;;0.90;0.60;;;;;;;6.24;98.25;98981.05;105172;1281;62344;-78
2022/02/16 08:08:00;;;;;;;2.40;0.70;;;;;;;6.22;98.95;98982.20;104681;1283;60673;-78
2022/02/16 08:10:27;;;;;;;1.50;0.70;;;;;;;6.19;99.20;98979.94;104905;1281;74464;-79
2022/02/16 08:12:59;;;;;;;1.30;0.50;;;;;;;6.18;99.58;98978.19;104883;1282;70393;-79
2022/02/16 08:15:27;;;;;;;1.90;0.70;;;;;;;6.17;99.82;98962.02;104749;1283;74062;-78
2022/02/16 08:17:54;;;;;;;0.60;0.30;;;;;;;6.15;100.00;98956.38;104436;1284;61565;-80
2022/02/16 08:20:21;;;;;;;0.70;0.60;;;;;;;6.15;100.00;98944.70;105040;1277;59708;-79
2022/02/16 08:22:47;;;;;;;1.70;0.70;;;;;;;6.16;100.00;98942.77;105095;1281;73299;-79
2022/02/16 08:25:14;;;;;;;2.00;0.50;;;;;;;6.16;100.00;98930.61;104955;1283;60883;-78
2022/02/16 08:27:45;;;;;;;1.40;0.50;;;;;;;6.18;100.00;98916.22;105212;1284;59592;-79
2022/02/16 08:30:13;;;;;;;1.80;0.80;;;;;;;6.19;100.00;98909.70;104955;1284;62040;-79
2022/02/16 08:32:40;;;;;;;1.10;0.60;;;;;;;6.23;100.00;98904.64;104600;1283;60322;-79
2022/02/16 08:35:09;;;;;;;1.90;0.60;;;;;;;6.28;100.00;98900.91;104700;1284;74426;-78
2022/02/16 08:37:37;;;;;;;1.40;0.80;;;;;;;6.35;100.00;98895.84;104696;1284;71229;-81
2022/02/16 08:40:05;;;;;;;1.40;0.60;;;;;;;6.41;100.00;98891.48;105049;1281;74028;-80
2022/02/16 08:42:33;;;;;;;1.20;0.60;;;;;;;6.48;99.97;98888.89;104818;1284;60782;-81
2022/02/16 08:44:59;;;;;;;0.80;0.60;;;;;;;6.56;99.62;98884.44;105027;1283;60636;-81
2022/02/16 08:47:26;;;;;;;2.10;0.50;;;;;;;6.60;99.12;98880.45;104923;1283;72269;-79
2022/02/16 08:49:52;;;;;;;0.80;0.50;;;;;;;6.63;99.24;98879.28;104652;1284;70126;-81
2022/02/16 08:52:19;;;;;;;0.70;0.40;;;;;;;6.67;99.05;98873.68;104291;1285;72625;-81
2022/02/16 08:54:46;;;;;;;1.20;0.50;;;;;;;6.71;98.88;98864.95;104728;1284;62905;-83
2022/02/16 08:57:12;;;;;;;0.50;0.30;;;;;;;6.75;98.85;98859.33;104641;1284;60188;-79
2022/02/16 08:59:41;;;;;;;0.50;0.30;;;;;;;6.81;98.52;98847.00;104895;1284;72317;-81
2022/02/16 09:02:08;;;;;;;1.70;0.70;;;;;;;6.89;98.33;98839.84;104740;1283;72248;-79
2022/02/16 09:04:35;;;;;;;1.40;0.60;;;;;;;6.96;97.71;98828.12;104204;1284;71864;-80
2022/02/16 09:09:47;;;;;;;1.40;0.70;;;;;;;7.05;96.79;98829.85;104559;1284;60584;-78
2022/02/16 09:12:13;;;;;;;4.00;0.80;;;;;;;7.08;96.59;98823.66;104455;1284;59697;-79
2022/02/16 09:14:40;;;;;;;1.10;0.60;;;;;;;7.15;96.82;98824.73;104533;1284;59665;-80
2022/02/16 09:17:07;;;;;;;1.50;0.50;;;;;;;7.22;96.59;98828.84;104770;1283;72907;-78
2022/02/16 09:19:35;;;;;;;3.40;0.70;;;;;;;7.27;97.23;98824.11;104978;1283;61606;-80
2022/02/16 09:22:02;;;;;;;1.00;0.50;;;;;;;7.25;97.70;98822.13;104584;1284;62304;-80
2022/02/16 09:24:28;;;;;;;0.70;0.40;;;;;;;7.16;98.69;98818.20;104935;1284;73455;-80
2022/02/16 09:26:55;;;;;;;2.50;0.50;;;;;;;7.07;99.36;98823.61;105246;1274;71332;-80
2022/02/16 09:29:22;;;;;;;2.80;0.40;;;;;;;7.02;99.88;98814.27;104825;1277;59672;-84
2022/02/16 09:31:52;;;;;;;2.40;0.40;;;;;;;7.01;100.00;98803.20;104866;1282;61189;-81
2022/02/16 09:34:20;;;;;;;0.60;0.30;;;;;;;7.06;100.00;98797.24;105046;1281;60897;-80
2022/02/16 09:36:46;;;;;;;0.50;0.30;;;;;;;7.08;100.00;98791.77;105128;1283;73325;-81
2022/02/16 09:39:13;;;;;;;0.80;0.50;;;;;;;7.12;100.00;98787.85;104435;1284;59672;-81
2022/02/16 09:41:43;;;;;;;1.10;0.40;;;;;;;7.14;100.00;98781.37;104784;1283;74252;-79
2022/02/16 09:44:13;;;;;;;1.00;0.40;;;;;;;7.18;100.00;98771.19;104834;1283;61476;-81
2022/02/16 09:46:40;;;;;;;0.70;0.40;;;;;;;7.19;100.00;98767.90;105008;1273;60313;-80
2022/02/16 09:49:10;;;;;;;3.90;0.40;;;;;;;7.21;100.00;98764.83;104885;1283;72464;-81
2022/02/16 09:51:38;;;;;;;0.90;0.40;;;;;;;7.26;100.00;98750.31;104812;1284;72456;-80
2022/02/16 09:54:05;;;;;;;2.70;0.40;;;;;;;7.30;100.00;98747.84;104412;1286;74166;-82
2022/02/16 09:56:32;;;;;;;0.70;0.40;;;;;;;7.35;100.00;98744.40;104639;1284;61793;-79
2022/02/16 09:59:01;;;;;;;0.50;0.30;;;;;;;7.38;100.00;98750.48;104433;1284;61365;-81
2022/02/16 10:01:27;;;;;;;1.10;0.50;;;;;;;7.39;100.00;98759.69;104276;1287;72331;-81
2022/02/16 10:04:09;;;;;;;0.70;0.40;;;;;;;7.39;100.00;98753.08;104821;1285;59265;-79
2022/02/16 10:06:44;;;;;;;0.50;0.30;;;;;;;7.40;100.00;98744.11;104283;1286;74167;-84
2022/02/16 10:09:27;;;;;;;1.40;0.70;;;;;;;7.44;100.00;98745.33;104927;1284;61447;-81
2022/02/16 10:12:04;;;;;;;2.20;0.30;;;;;;;7.49;100.00;98746.55;104274;1286;60345;-80
2022/02/16 10:14:33;;;;;;;1.80;0.30;;;;;;;7.53;100.00;98753.05;104965;1274;73405;-80
2022/02/16 10:17:03;;;;;;;2.10;0.50;;;;;;;7.58;100.00;98753.15;104590;1285;71431;-82
2022/02/16 10:19:53;;;;;;;0.90;0.50;;;;;;;7.61;100.00;98755.20;104871;1286;74198;-82
2022/02/16 10:22:22;;;;;;;0.40;0.30;;;;;;;7.64;100.00;98757.80;105515;1274;60981;-79
2022/02/16 10:24:49;;;;;;;0.80;0.40;;;;;;;7.71;100.00;98747.56;104684;1286;63352;-81
2022/02/16 10:27:16;;;;;;;0.50;0.20;;;;;;;7.74;100.00;98742.52;104769;1283;73353;-80
2022/02/16 10:29:45;;;;;;;0.60;0.30;;;;;;;7.75;100.00;98725.98;104873;1283;71477;-78
2022/02/16 10:32:27;;;;;;;0.60;0.30;;;;;;;7.78;100.00;98733.42;105179;1277;72975;-82
2022/02/16 10:34:58;;;;;;;0.20;0.10;;;;;;;7.78;100.00;98726.27;104824;1283;64615;-81
2022/02/16 10:37:36;;;;;;;0.80;0.30;;;;;;;7.80;100.00;98732.01;105310;1277;61588;-79
2022/02/16 10:40:11;;;;;;;0.90;0.60;;;;;;;7.77;100.00;98735.70;105170;1277;74588;-79
2022/02/16 10:42:40;;;;;;;3.10;0.40;;;;;;;7.77;100.00;98725.61;105052;1277;71440;-80
2022/02/16 10:45:10;;;;;;;0.60;0.30;;;;;;;7.79;100.00;98727.73;105129;1277;74267;-79
2022/02/16 10:47:53;;;;;;;0.60;0.30;;;;;;;7.80;100.00;98729.55;105080;1277;61459;-81
2022/02/16 10:50:25;;;;;;;0.30;0.30;;;;;;;7.79;100.00;98716.13;105525;1277;60324;-80
2022/02/16 10:52:55;;;;;;;1.00;0.30;;;;;;;7.77;100.00;98710.27;105334;1277;73111;-79
2022/02/16 10:55:48;;;;;;;0.70;0.20;;;;;;;7.82;100.00;98703.49;105276;1277;71515;-80
2022/02/16 10:58:17;;;;;;;1.70;0.30;;;;;;;7.91;100.00;98701.19;105488;1279;74015;-80
2022/02/16 11:00:45;;;;;;;0.20;0.10;;;;;;;8.00;100.00;98688.02;105091;1277;62498;-79
2022/02/16 11:03:35;;;;;;;0.70;0.40;;;;;;;8.10;100.00;98673.89;105082;1277;61643;-79
2022/02/16 11:06:08;;;;;;;0.60;0.20;;;;;;;8.17;100.00;98666.23;105262;1280;73327;-80
2022/02/16 11:08:38;;;;;;;0.10;0.10;;;;;;;8.22;100.00;98667.91;105317;1280;70364;-80
2022/02/16 11:11:25;;;;;;;0.20;0.10;;;;;;;8.24;100.00;98674.08;105304;1277;73127;-80
2022/02/16 11:14:03;;;;;;;0.60;0.20;;;;;;;8.27;100.00;98673.81;105231;1277;61407;-79
2022/02/16 11:16:30;;;;;;;0.20;0.10;;;;;;;8.31;100.00;98670.10;105674;1264;60356;-81
2022/02/16 11:18:59;;;;;;;0.90;0.20;;;;;;;8.36;100.00;98672.97;105778;1270;74359;-81
2022/02/16 11:21:30;;;;;;;0.40;0.30;;;;;;;8.42;100.00;98665.00;105424;1274;71370;-80
2022/02/16 11:23:59;;;;;;;5.80;0.20;;;;;;;8.46;100.00;98665.23;105181;1273;73951;-81
2022/02/16 11:26:25;;;;;;;0.40;0.20;;;;;;;8.52;100.00;98663.16;105660;1264;63397;-80
2022/02/16 11:28:52;;;;;;;0.70;0.20;;;;;;;8.60;100.00;98667.39;105430;1274;59646;-81
2022/02/16 11:31:30;;;;;;;0.50;0.30;;;;;;;8.65;100.00;98662.69;105375;1274;59378;-81
2022/02/16 11:34:13;;;;;;;0.30;0.20;;;;;;;8.69;100.00;98660.47;105603;1274;71048;-81
2022/02/16 11:36:45;;;;;;;0.30;0.20;;;;;;;8.75;100.00;98649.55;105193;1274;74473;-81
2022/02/16 11:39:44;;;;;;;0.50;0.20;;;;;;;8.80;100.00;98634.38;105523;1274;62181;-80
2022/02/16 11:42:18;;;;;;;0.40;0.20;;;;;;;8.86;100.00;98634.34;105249;1274;61623;-80